sensor_id;sensor_type;location;lat;lon;timestamp;P1;durP1;ratioP1;P2;durP2;ratioP2
73474;SDS011;61711;52.266;10.542;2023-02-04T00:00:21;4.82;;;1.45;;
73474;SDS011;61711;52.266;10.542;2023-02-04T00:02:48;6.00;;;1.50;;
73474;SDS011;61711;52.266;10.542;2023-02-04T00:05:15;4.40;;;1.52;;
73474;SDS011;61711;52.266;10.542;2023-02-04T00:07:41;4.00;;;1.30;;
73474;SDS011;61711;52.266;10.542;2023-02-04T00:10:07;1.95;;;1.30;;
73474;SDS011;61711;52.266;10.542;2023-02-04T00:12:34;2.10;;;1.35;;
73474;SDS011;61711;52.266;10.542;2023-02-04T00:15:00;2.63;;;1.10;;
73474;SDS011;61711;52.266;10.542;2023-02-04T00:17:26;2.67;;;1.25;;
73474;SDS011;61711;52.266;10.542;2023-02-04T00:19:52;3.78;;;1.20;;
73474;SDS011;61711;52.266;10.542;2023-02-04T00:22:18;1.67;;;1.23;;
73474;SDS011;61711;52.266;10.542;2023-02-04T00:24:45;3.65;;;1.40;;
73474;SDS011;61711;52.266;10.542;2023-02-04T00:27:14;2.47;;;1.10;;
73474;SDS011;61711;52.266;10.542;2023-02-04T00:29:40;2.30;;;1.15;;
73474;SDS011;61711;52.266;10.542;2023-02-04T00:32:06;2.05;;;1.10;;
73474;SDS011;61711;52.266;10.542;2023-02-04T00:34:32;3.67;;;1.58;;
73474;SDS011;61711;52.266;10.542;2023-02-04T00:36:58;2.28;;;1.33;;
73474;SDS011;61711;52.266;10.542;2023-02-04T00:39:25;2.58;;;1.10;;
73474;SDS011;61711;52.266;10.542;2023-02-04T00:41:51;3.05;;;1.25;;
73474;SDS011;61711;52.266;10.542;2023-02-04T00:44:17;1.63;;;1.25;;
73474;SDS011;61711;52.266;10.542;2023-02-04T00:46:43;1.50;;;1.23;;
73474;SDS011;61711;52.266;10.542;2023-02-04T00:49:09;2.08;;;1.60;;
73474;SDS011;61711;52.266;10.542;2023-02-04T00:51:38;2.47;;;1.38;;
73474;SDS011;61711;52.266;10.542;2023-02-04T00:54:05;2.22;;;1.25;;
73474;SDS011;61711;52.266;10.542;2023-02-04T00:56:32;3.58;;;1.40;;
73474;SDS011;61711;52.266;10.542;2023-02-04T00:58:58;2.78;;;1.40;;
73474;SDS011;61711;52.266;10.542;2023-02-04T01:01:24;4.40;;;1.40;;
73474;SDS011;61711;52.266;10.542;2023-02-04T01:03:50;1.42;;;1.17;;
73474;SDS011;61711;52.266;10.542;2023-02-04T01:06:16;2.08;;;1.25;;
73474;SDS011;61711;52.266;10.542;2023-02-04T01:08:42;1.85;;;1.20;;
73474;SDS011;61711;52.266;10.542;2023-02-04T01:11:08;3.33;;;1.35;;
73474;SDS011;61711;52.266;10.542;2023-02-04T01:13:34;1.70;;;1.30;;
73474;SDS011;61711;52.266;10.542;2023-02-04T01:16:00;2.67;;;1.17;;
73474;SDS011;61711;52.266;10.542;2023-02-04T01:18:26;2.22;;;1.30;;
73474;SDS011;61711;52.266;10.542;2023-02-04T01:20:52;1.23;;;1.13;;
73474;SDS011;61711;52.266;10.542;2023-02-04T01:23:18;1.60;;;1.20;;
73474;SDS011;61711;52.266;10.542;2023-02-04T01:25:44;1.40;;;1.15;;
73474;SDS011;61711;52.266;10.542;2023-02-04T01:28:10;1.48;;;1.10;;
73474;SDS011;61711;52.266;10.542;2023-02-04T01:30:36;1.30;;;1.00;;
73474;SDS011;61711;52.266;10.542;2023-02-04T01:33:02;1.25;;;1.10;;
73474;SDS011;61711;52.266;10.542;2023-02-04T01:35:28;1.05;;;0.95;;
73474;SDS011;61711;52.266;10.542;2023-02-04T01:37:54;1.60;;;1.10;;
73474;SDS011;61711;52.266;10.542;2023-02-04T01:40:20;1.38;;;1.05;;
73474;SDS011;61711;52.266;10.542;2023-02-04T01:42:46;2.03;;;1.10;;
73474;SDS011;61711;52.266;10.542;2023-02-04T01:45:12;1.65;;;1.02;;
73474;SDS011;61711;52.266;10.542;2023-02-04T01:47:38;2.65;;;1.10;;
73474;SDS011;61711;52.266;10.542;2023-02-04T01:50:04;3.00;;;1.05;;
73474;SDS011;61711;52.266;10.542;2023-02-04T01:52:33;2.38;;;1.20;;
73474;SDS011;61711;52.266;10.542;2023-02-04T01:54:59;2.00;;;1.20;;
73474;SDS011;61711;52.266;10.542;2023-02-04T01:57:25;2.50;;;1.45;;
73474;SDS011;61711;52.266;10.542;2023-02-04T01:59:51;1.92;;;1.25;;
73474;SDS011;61711;52.266;10.542;2023-02-04T02:02:39;3.45;;;1.42;;
73474;SDS011;61711;52.266;10.542;2023-02-04T02:05:06;2.70;;;1.10;;
73474;SDS011;61711;52.266;10.542;2023-02-04T02:07:32;2.17;;;1.20;;
73474;SDS011;61711;52.266;10.542;2023-02-04T02:09:58;2.13;;;1.00;;
73474;SDS011;61711;52.266;10.542;2023-02-04T02:12:24;1.30;;;1.05;;
73474;SDS011;61711;52.266;10.542;2023-02-04T02:14:50;1.30;;;1.20;;
73474;SDS011;61711;52.266;10.542;2023-02-04T02:17:16;2.05;;;1.40;;
73474;SDS011;61711;52.266;10.542;2023-02-04T02:19:42;2.67;;;1.48;;
73474;SDS011;61711;52.266;10.542;2023-02-04T02:22:10;2.70;;;1.35;;
73474;SDS011;61711;52.266;10.542;2023-02-04T02:24:37;2.95;;;1.30;;
73474;SDS011;61711;52.266;10.542;2023-02-04T02:27:04;1.80;;;1.13;;
73474;SDS011;61711;52.266;10.542;2023-02-04T02:29:32;2.22;;;1.20;;
73474;SDS011;61711;52.266;10.542;2023-02-04T02:31:58;1.98;;;1.48;;
73474;SDS011;61711;52.266;10.542;2023-02-04T02:34:25;3.65;;;1.45;;
73474;SDS011;61711;52.266;10.542;2023-02-04T02:36:52;1.65;;;1.27;;
73474;SDS011;61711;52.266;10.542;2023-02-04T02:39:18;2.58;;;1.15;;
73474;SDS011;61711;52.266;10.542;2023-02-04T02:41:44;3.45;;;1.52;;
73474;SDS011;61711;52.266;10.542;2023-02-04T02:44:11;2.13;;;1.40;;
73474;SDS011;61711;52.266;10.542;2023-02-04T02:46:38;2.63;;;1.60;;
73474;SDS011;61711;52.266;10.542;2023-02-04T02:49:05;2.67;;;1.50;;
73474;SDS011;61711;52.266;10.542;2023-02-04T02:51:31;6.47;;;1.70;;
73474;SDS011;61711;52.266;10.542;2023-02-04T02:53:57;3.05;;;1.50;;
73474;SDS011;61711;52.266;10.542;2023-02-04T02:56:23;2.38;;;1.30;;
73474;SDS011;61711;52.266;10.542;2023-02-04T02:58:49;2.25;;;1.20;;
73474;SDS011;61711;52.266;10.542;2023-02-04T03:01:15;5.43;;;1.70;;
73474;SDS011;61711;52.266;10.542;2023-02-04T03:03:43;2.55;;;1.40;;
73474;SDS011;61711;52.266;10.542;2023-02-04T03:06:17;2.40;;;1.60;;
73474;SDS011;61711;52.266;10.542;2023-02-04T03:08:45;4.15;;;1.70;;
73474;SDS011;61711;52.266;10.542;2023-02-04T03:11:11;2.28;;;1.55;;
73474;SDS011;61711;52.266;10.542;2023-02-04T03:13:37;2.50;;;1.50;;
73474;SDS011;61711;52.266;10.542;2023-02-04T03:16:04;3.30;;;1.70;;
73474;SDS011;61711;52.266;10.542;2023-02-04T03:18:30;3.15;;;1.40;;
73474;SDS011;61711;52.266;10.542;2023-02-04T03:20:56;3.42;;;1.60;;
73474;SDS011;61711;52.266;10.542;2023-02-04T03:23:23;2.45;;;1.70;;
73474;SDS011;61711;52.266;10.542;2023-02-04T03:25:49;2.50;;;1.67;;
73474;SDS011;61711;52.266;10.542;2023-02-04T03:28:16;3.95;;;1.80;;
73474;SDS011;61711;52.266;10.542;2023-02-04T03:30:42;2.70;;;1.55;;
73474;SDS011;61711;52.266;10.542;2023-02-04T03:33:08;3.28;;;1.75;;
73474;SDS011;61711;52.266;10.542;2023-02-04T03:35:34;3.10;;;1.65;;
73474;SDS011;61711;52.266;10.542;2023-02-04T03:38:00;3.58;;;1.85;;
73474;SDS011;61711;52.266;10.542;2023-02-04T03:40:26;5.05;;;1.90;;
73474;SDS011;61711;52.266;10.542;2023-02-04T03:42:53;3.28;;;1.80;;
73474;SDS011;61711;52.266;10.542;2023-02-04T03:45:19;4.60;;;2.10;;
73474;SDS011;61711;52.266;10.542;2023-02-04T03:47:46;5.65;;;1.92;;
73474;SDS011;61711;52.266;10.542;2023-02-04T03:50:12;3.38;;;1.77;;
73474;SDS011;61711;52.266;10.542;2023-02-04T03:52:38;2.95;;;1.92;;
73474;SDS011;61711;52.266;10.542;2023-02-04T03:55:04;2.45;;;1.92;;
73474;SDS011;61711;52.266;10.542;2023-02-04T03:57:30;2.50;;;1.80;;
73474;SDS011;61711;52.266;10.542;2023-02-04T03:59:56;2.28;;;1.70;;
73474;SDS011;61711;52.266;10.542;2023-02-04T04:02:22;6.05;;;1.85;;
73474;SDS011;61711;52.266;10.542;2023-02-04T04:04:48;3.78;;;2.00;;
73474;SDS011;61711;52.266;10.542;2023-02-04T04:07:14;3.97;;;1.77;;
73474;SDS011;61711;52.266;10.542;2023-02-04T04:09:40;3.60;;;1.80;;
73474;SDS011;61711;52.266;10.542;2023-02-04T04:12:06;5.72;;;1.88;;
73474;SDS011;61711;52.266;10.542;2023-02-04T04:14:32;1.90;;;1.60;;
73474;SDS011;61711;52.266;10.542;2023-02-04T04:16:58;3.92;;;1.90;;
73474;SDS011;61711;52.266;10.542;2023-02-04T04:19:24;5.90;;;2.20;;
73474;SDS011;61711;52.266;10.542;2023-02-04T04:21:50;2.42;;;1.77;;
73474;SDS011;61711;52.266;10.542;2023-02-04T04:24:16;3.20;;;2.10;;
73474;SDS011;61711;52.266;10.542;2023-02-04T04:26:42;6.15;;;2.10;;
73474;SDS011;61711;52.266;10.542;2023-02-04T04:29:08;4.65;;;2.58;;
73474;SDS011;61711;52.266;10.542;2023-02-04T04:31:34;3.63;;;2.00;;
73474;SDS011;61711;52.266;10.542;2023-02-04T04:34:00;6.45;;;2.33;;
73474;SDS011;61711;52.266;10.542;2023-02-04T04:36:26;3.30;;;2.08;;
73474;SDS011;61711;52.266;10.542;2023-02-04T04:38:52;3.58;;;2.10;;
73474;SDS011;61711;52.266;10.542;2023-02-04T04:41:18;3.72;;;1.90;;
73474;SDS011;61711;52.266;10.542;2023-02-04T04:43:44;3.20;;;2.10;;
73474;SDS011;61711;52.266;10.542;2023-02-04T04:46:10;5.20;;;2.20;;
73474;SDS011;61711;52.266;10.542;2023-02-04T04:48:36;3.17;;;2.25;;
73474;SDS011;61711;52.266;10.542;2023-02-04T04:51:02;7.68;;;3.40;;
73474;SDS011;61711;52.266;10.542;2023-02-04T04:53:28;4.40;;;2.40;;
73474;SDS011;61711;52.266;10.542;2023-02-04T04:55:54;3.33;;;2.08;;
73474;SDS011;61711;52.266;10.542;2023-02-04T04:58:20;4.40;;;2.28;;
73474;SDS011;61711;52.266;10.542;2023-02-04T05:00:46;3.45;;;2.30;;
73474;SDS011;61711;52.266;10.542;2023-02-04T05:03:12;4.28;;;2.47;;
73474;SDS011;61711;52.266;10.542;2023-02-04T05:05:38;5.25;;;2.58;;
73474;SDS011;61711;52.266;10.542;2023-02-04T05:08:08;4.30;;;2.60;;
73474;SDS011;61711;52.266;10.542;2023-02-04T05:10:37;9.80;;;2.80;;
73474;SDS011;61711;52.266;10.542;2023-02-04T05:13:03;4.25;;;2.38;;
73474;SDS011;61711;52.266;10.542;2023-02-04T05:15:29;3.33;;;2.25;;
73474;SDS011;61711;52.266;10.542;2023-02-04T05:17:55;4.78;;;2.50;;
73474;SDS011;61711;52.266;10.542;2023-02-04T05:20:22;4.18;;;2.30;;
73474;SDS011;61711;52.266;10.542;2023-02-04T05:22:48;3.78;;;2.42;;
73474;SDS011;61711;52.266;10.542;2023-02-04T05:25:14;3.45;;;2.47;;
73474;SDS011;61711;52.266;10.542;2023-02-04T05:27:43;2.90;;;2.10;;
73474;SDS011;61711;52.266;10.542;2023-02-04T05:30:10;4.00;;;2.38;;
73474;SDS011;61711;52.266;10.542;2023-02-04T05:32:36;5.38;;;2.03;;
73474;SDS011;61711;52.266;10.542;2023-02-04T05:35:03;4.38;;;2.58;;
73474;SDS011;61711;52.266;10.542;2023-02-04T05:37:29;2.95;;;2.10;;
73474;SDS011;61711;52.266;10.542;2023-02-04T05:39:55;3.28;;;2.28;;
73474;SDS011;61711;52.266;10.542;2023-02-04T05:42:21;5.47;;;2.13;;
73474;SDS011;61711;52.266;10.542;2023-02-04T05:44:47;3.78;;;2.33;;
73474;SDS011;61711;52.266;10.542;2023-02-04T05:47:13;5.13;;;2.72;;
73474;SDS011;61711;52.266;10.542;2023-02-04T05:49:39;5.30;;;2.38;;
73474;SDS011;61711;52.266;10.542;2023-02-04T05:52:05;4.07;;;2.60;;
73474;SDS011;61711;52.266;10.542;2023-02-04T05:54:31;5.18;;;2.60;;
73474;SDS011;61711;52.266;10.542;2023-02-04T05:56:57;3.35;;;2.63;;
73474;SDS011;61711;52.266;10.542;2023-02-04T05:59:23;4.20;;;2.30;;
73474;SDS011;61711;52.266;10.542;2023-02-04T06:01:49;7.45;;;2.60;;
73474;SDS011;61711;52.266;10.542;2023-02-04T06:04:15;3.78;;;2.53;;
73474;SDS011;61711;52.266;10.542;2023-02-04T06:06:42;3.03;;;2.28;;
73474;SDS011;61711;52.266;10.542;2023-02-04T06:09:08;7.10;;;2.70;;
73474;SDS011;61711;52.266;10.542;2023-02-04T06:11:34;5.97;;;2.60;;
73474;SDS011;61711;52.266;10.542;2023-02-04T06:14:00;4.93;;;2.80;;
73474;SDS011;61711;52.266;10.542;2023-02-04T06:16:26;4.82;;;2.65;;
73474;SDS011;61711;52.266;10.542;2023-02-04T06:18:52;4.93;;;2.75;;
73474;SDS011;61711;52.266;10.542;2023-02-04T06:21:18;3.72;;;2.40;;
73474;SDS011;61711;52.266;10.542;2023-02-04T06:23:44;3.45;;;2.42;;
73474;SDS011;61711;52.266;10.542;2023-02-04T06:26:10;6.45;;;2.42;;
73474;SDS011;61711;52.266;10.542;2023-02-04T06:28:36;3.80;;;2.42;;
73474;SDS011;61711;52.266;10.542;2023-02-04T06:31:02;4.63;;;2.60;;
73474;SDS011;61711;52.266;10.542;2023-02-04T06:33:28;4.00;;;2.58;;
73474;SDS011;61711;52.266;10.542;2023-02-04T06:35:54;4.45;;;2.90;;
73474;SDS011;61711;52.266;10.542;2023-02-04T06:38:20;4.40;;;3.00;;
73474;SDS011;61711;52.266;10.542;2023-02-04T06:40:46;8.38;;;3.40;;
73474;SDS011;61711;52.266;10.542;2023-02-04T06:43:14;5.75;;;3.10;;
73474;SDS011;61711;52.266;10.542;2023-02-04T06:45:40;8.68;;;5.07;;
73474;SDS011;61711;52.266;10.542;2023-02-04T06:48:06;4.85;;;2.90;;
73474;SDS011;61711;52.266;10.542;2023-02-04T06:50:32;5.15;;;3.00;;
73474;SDS011;61711;52.266;10.542;2023-02-04T06:52:58;7.15;;;2.85;;
73474;SDS011;61711;52.266;10.542;2023-02-04T06:55:24;5.65;;;2.97;;
73474;SDS011;61711;52.266;10.542;2023-02-04T06:57:50;7.35;;;3.20;;
73474;SDS011;61711;52.266;10.542;2023-02-04T07:00:16;5.97;;;3.22;;
73474;SDS011;61711;52.266;10.542;2023-02-04T07:02:42;5.90;;;3.10;;
73474;SDS011;61711;52.266;10.542;2023-02-04T07:05:10;5.95;;;3.33;;
73474;SDS011;61711;52.266;10.542;2023-02-04T07:07:36;6.43;;;3.10;;
73474;SDS011;61711;52.266;10.542;2023-02-04T07:10:02;5.85;;;3.33;;
73474;SDS011;61711;52.266;10.542;2023-02-04T07:12:29;5.55;;;3.00;;
73474;SDS011;61711;52.266;10.542;2023-02-04T07:14:55;6.75;;;3.50;;
73474;SDS011;61711;52.266;10.542;2023-02-04T07:17:21;4.57;;;3.30;;
73474;SDS011;61711;52.266;10.542;2023-02-04T07:19:47;6.18;;;3.70;;
73474;SDS011;61711;52.266;10.542;2023-02-04T07:22:13;4.97;;;2.90;;
73474;SDS011;61711;52.266;10.542;2023-02-04T07:24:39;6.88;;;3.60;;
73474;SDS011;61711;52.266;10.542;2023-02-04T07:27:05;7.13;;;3.50;;
73474;SDS011;61711;52.266;10.542;2023-02-04T07:29:31;10.45;;;4.65;;
73474;SDS011;61711;52.266;10.542;2023-02-04T07:31:57;8.63;;;4.20;;
73474;SDS011;61711;52.266;10.542;2023-02-04T07:34:23;9.23;;;3.97;;
73474;SDS011;61711;52.266;10.542;2023-02-04T07:36:49;5.85;;;3.75;;
73474;SDS011;61711;52.266;10.542;2023-02-04T07:39:15;9.43;;;4.15;;
73474;SDS011;61711;52.266;10.542;2023-02-04T07:41:41;5.80;;;3.50;;
73474;SDS011;61711;52.266;10.542;2023-02-04T07:44:07;6.65;;;3.75;;
73474;SDS011;61711;52.266;10.542;2023-02-04T07:46:33;6.40;;;3.55;;
73474;SDS011;61711;52.266;10.542;2023-02-04T07:48:59;7.57;;;3.45;;
73474;SDS011;61711;52.266;10.542;2023-02-04T07:51:25;6.07;;;3.58;;
73474;SDS011;61711;52.266;10.542;2023-02-04T07:53:51;6.93;;;3.20;;
73474;SDS011;61711;52.266;10.542;2023-02-04T07:56:17;5.90;;;3.33;;
73474;SDS011;61711;52.266;10.542;2023-02-04T07:58:43;7.10;;;3.35;;
73474;SDS011;61711;52.266;10.542;2023-02-04T08:01:09;7.15;;;4.10;;
73474;SDS011;61711;52.266;10.542;2023-02-04T08:03:35;5.97;;;3.40;;
73474;SDS011;61711;52.266;10.542;2023-02-04T08:06:01;6.25;;;3.47;;
73474;SDS011;61711;52.266;10.542;2023-02-04T08:08:27;7.20;;;3.58;;
73474;SDS011;61711;52.266;10.542;2023-02-04T08:10:53;5.93;;;3.25;;
73474;SDS011;61711;52.266;10.542;2023-02-04T08:13:19;5.25;;;3.13;;
73474;SDS011;61711;52.266;10.542;2023-02-04T08:15:45;6.13;;;3.53;;
73474;SDS011;61711;52.266;10.542;2023-02-04T08:18:11;7.25;;;3.65;;
73474;SDS011;61711;52.266;10.542;2023-02-04T08:20:37;5.57;;;3.53;;
73474;SDS011;61711;52.266;10.542;2023-02-04T08:23:03;5.13;;;3.47;;
73474;SDS011;61711;52.266;10.542;2023-02-04T08:25:29;4.55;;;3.33;;
73474;SDS011;61711;52.266;10.542;2023-02-04T08:27:55;6.13;;;3.35;;
73474;SDS011;61711;52.266;10.542;2023-02-04T08:30:21;6.18;;;3.30;;
73474;SDS011;61711;52.266;10.542;2023-02-04T08:32:47;5.20;;;3.30;;
73474;SDS011;61711;52.266;10.542;2023-02-04T08:35:13;6.47;;;3.60;;
73474;SDS011;61711;52.266;10.542;2023-02-04T08:37:39;4.68;;;3.22;;
73474;SDS011;61711;52.266;10.542;2023-02-04T08:40:05;6.45;;;3.90;;
73474;SDS011;61711;52.266;10.542;2023-02-04T08:42:31;6.85;;;3.95;;
73474;SDS011;61711;52.266;10.542;2023-02-04T08:44:58;5.55;;;3.10;;
73474;SDS011;61711;52.266;10.542;2023-02-04T08:47:25;5.10;;;3.10;;
73474;SDS011;61711;52.266;10.542;2023-02-04T08:49:51;5.00;;;3.50;;
73474;SDS011;61711;52.266;10.542;2023-02-04T08:52:18;4.88;;;3.20;;
73474;SDS011;61711;52.266;10.542;2023-02-04T08:54:44;8.25;;;4.10;;
73474;SDS011;61711;52.266;10.542;2023-02-04T08:57:10;4.90;;;2.92;;
73474;SDS011;61711;52.266;10.542;2023-02-04T08:59:36;6.78;;;2.72;;
73474;SDS011;61711;52.266;10.542;2023-02-04T09:02:02;4.65;;;3.05;;
73474;SDS011;61711;52.266;10.542;2023-02-04T09:04:28;3.53;;;2.60;;
73474;SDS011;61711;52.266;10.542;2023-02-04T09:06:54;3.08;;;2.28;;
73474;SDS011;61711;52.266;10.542;2023-02-04T09:09:20;4.38;;;2.33;;
73474;SDS011;61711;52.266;10.542;2023-02-04T09:11:46;4.25;;;2.70;;
73474;SDS011;61711;52.266;10.542;2023-02-04T09:14:12;5.20;;;2.60;;
73474;SDS011;61711;52.266;10.542;2023-02-04T09:16:38;5.85;;;2.40;;
73474;SDS011;61711;52.266;10.542;2023-02-04T09:19:04;4.00;;;2.15;;
73474;SDS011;61711;52.266;10.542;2023-02-04T09:21:33;3.78;;;2.20;;
73474;SDS011;61711;52.266;10.542;2023-02-04T09:23:59;3.13;;;2.05;;
73474;SDS011;61711;52.266;10.542;2023-02-04T09:26:25;5.03;;;1.88;;
73474;SDS011;61711;52.266;10.542;2023-02-04T09:28:51;4.90;;;2.20;;
73474;SDS011;61711;52.266;10.542;2023-02-04T09:31:17;4.18;;;1.92;;
73474;SDS011;61711;52.266;10.542;2023-02-04T09:33:43;3.67;;;1.70;;
73474;SDS011;61711;52.266;10.542;2023-02-04T09:36:09;5.05;;;1.92;;
73474;SDS011;61711;52.266;10.542;2023-02-04T09:38:35;2.50;;;1.80;;
73474;SDS011;61711;52.266;10.542;2023-02-04T09:41:02;2.45;;;1.70;;
73474;SDS011;61711;52.266;10.542;2023-02-04T09:43:29;3.25;;;1.90;;
73474;SDS011;61711;52.266;10.542;2023-02-04T09:45:56;3.75;;;1.65;;
73474;SDS011;61711;52.266;10.542;2023-02-04T09:48:23;3.28;;;2.20;;
73474;SDS011;61711;52.266;10.542;2023-02-04T09:50:49;4.38;;;2.17;;
73474;SDS011;61711;52.266;10.542;2023-02-04T09:53:17;4.95;;;1.90;;
73474;SDS011;61711;52.266;10.542;2023-02-04T09:55:45;3.67;;;1.90;;
73474;SDS011;61711;52.266;10.542;2023-02-04T09:58:12;4.43;;;1.73;;
73474;SDS011;61711;52.266;10.542;2023-02-04T10:00:41;3.45;;;2.15;;
73474;SDS011;61711;52.266;10.542;2023-02-04T10:03:10;3.92;;;1.90;;
73474;SDS011;61711;52.266;10.542;2023-02-04T10:05:39;3.35;;;2.00;;
73474;SDS011;61711;52.266;10.542;2023-02-04T10:08:05;3.05;;;1.80;;
73474;SDS011;61711;52.266;10.542;2023-02-04T10:10:31;2.95;;;1.50;;
73474;SDS011;61711;52.266;10.542;2023-02-04T10:12:58;3.95;;;1.30;;
73474;SDS011;61711;52.266;10.542;2023-02-04T10:15:24;2.75;;;1.50;;
73474;SDS011;61711;52.266;10.542;2023-02-04T10:17:52;1.90;;;1.40;;
73474;SDS011;61711;52.266;10.542;2023-02-04T10:20:20;4.35;;;1.58;;
73474;SDS011;61711;52.266;10.542;2023-02-04T10:22:47;3.47;;;1.50;;
73474;SDS011;61711;52.266;10.542;2023-02-04T10:25:14;3.60;;;1.65;;
73474;SDS011;61711;52.266;10.542;2023-02-04T10:27:47;4.70;;;1.70;;
73474;SDS011;61711;52.266;10.542;2023-02-04T10:30:23;3.15;;;1.10;;
73474;SDS011;61711;52.266;10.542;2023-02-04T10:32:50;3.10;;;1.48;;
73474;SDS011;61711;52.266;10.542;2023-02-04T10:35:17;2.70;;;1.30;;
73474;SDS011;61711;52.266;10.542;2023-02-04T10:37:43;4.88;;;1.40;;
73474;SDS011;61711;52.266;10.542;2023-02-04T10:40:29;3.40;;;1.75;;
73474;SDS011;61711;52.266;10.542;2023-02-04T10:42:55;2.58;;;1.40;;
73474;SDS011;61711;52.266;10.542;2023-02-04T10:45:22;2.13;;;1.35;;
73474;SDS011;61711;52.266;10.542;2023-02-04T10:47:49;1.80;;;1.40;;
73474;SDS011;61711;52.266;10.542;2023-02-04T10:50:16;3.83;;;1.70;;
73474;SDS011;61711;52.266;10.542;2023-02-04T10:52:44;2.60;;;1.30;;
73474;SDS011;61711;52.266;10.542;2023-02-04T10:55:12;2.70;;;1.10;;
73474;SDS011;61711;52.266;10.542;2023-02-04T10:57:40;2.15;;;1.30;;
73474;SDS011;61711;52.266;10.542;2023-02-04T11:00:16;2.50;;;1.30;;
73474;SDS011;61711;52.266;10.542;2023-02-04T11:02:44;3.70;;;1.27;;
73474;SDS011;61711;52.266;10.542;2023-02-04T11:05:14;1.92;;;1.00;;
73474;SDS011;61711;52.266;10.542;2023-02-04T11:07:41;4.38;;;1.35;;
73474;SDS011;61711;52.266;10.542;2023-02-04T11:10:50;1.50;;;1.00;;
73474;SDS011;61711;52.266;10.542;2023-02-04T11:18:05;1.77;;;1.17;;
73474;SDS011;61711;52.266;10.542;2023-02-04T11:20:32;1.63;;;1.20;;
73474;SDS011;61711;52.266;10.542;2023-02-04T11:25:43;2.28;;;1.10;;
73474;SDS011;61711;52.266;10.542;2023-02-04T11:28:23;1.95;;;1.00;;
73474;SDS011;61711;52.266;10.542;2023-02-04T11:30:59;1.73;;;1.20;;
73474;SDS011;61711;52.266;10.542;2023-02-04T11:33:35;1.88;;;1.10;;
73474;SDS011;61711;52.266;10.542;2023-02-04T11:36:05;2.30;;;1.65;;
73474;SDS011;61711;52.266;10.542;2023-02-04T11:38:31;1.25;;;1.08;;
73474;SDS011;61711;52.266;10.542;2023-02-04T11:40:58;4.43;;;1.70;;
73474;SDS011;61711;52.266;10.542;2023-02-04T11:43:24;3.40;;;1.20;;
73474;SDS011;61711;52.266;10.542;2023-02-04T11:48:46;2.03;;;1.20;;
73474;SDS011;61711;52.266;10.542;2023-02-04T11:51:16;2.90;;;1.30;;
73474;SDS011;61711;52.266;10.542;2023-02-04T11:53:43;2.55;;;1.50;;
73474;SDS011;61711;52.266;10.542;2023-02-04T11:56:18;2.03;;;1.23;;
73474;SDS011;61711;52.266;10.542;2023-02-04T11:58:44;1.73;;;1.38;;
73474;SDS011;61711;52.266;10.542;2023-02-04T12:01:19;2.03;;;1.30;;
73474;SDS011;61711;52.266;10.542;2023-02-04T12:03:47;5.00;;;1.70;;
73474;SDS011;61711;52.266;10.542;2023-02-04T12:06:23;3.80;;;2.28;;
73474;SDS011;61711;52.266;10.542;2023-02-04T12:08:49;5.05;;;2.30;;
73474;SDS011;61711;52.266;10.542;2023-02-04T12:11:27;3.42;;;1.50;;
73474;SDS011;61711;52.266;10.542;2023-02-04T12:13:58;2.42;;;1.40;;
73474;SDS011;61711;52.266;10.542;2023-02-04T12:16:24;3.35;;;1.38;;
73474;SDS011;61711;52.266;10.542;2023-02-04T12:18:50;2.15;;;1.38;;
73474;SDS011;61711;52.266;10.542;2023-02-04T12:21:16;2.70;;;1.30;;
73474;SDS011;61711;52.266;10.542;2023-02-04T12:23:43;3.67;;;1.30;;
73474;SDS011;61711;52.266;10.542;2023-02-04T12:26:09;2.47;;;1.45;;
73474;SDS011;61711;52.266;10.542;2023-02-04T12:28:36;1.95;;;1.20;;
73474;SDS011;61711;52.266;10.542;2023-02-04T12:31:02;2.65;;;1.80;;
73474;SDS011;61711;52.266;10.542;2023-02-04T12:33:28;2.10;;;1.20;;
73474;SDS011;61711;52.266;10.542;2023-02-04T12:35:54;2.45;;;1.15;;
73474;SDS011;61711;52.266;10.542;2023-02-04T12:38:20;6.85;;;2.50;;
73474;SDS011;61711;52.266;10.542;2023-02-04T12:40:46;4.57;;;1.60;;
73474;SDS011;61711;52.266;10.542;2023-02-04T12:43:12;2.08;;;1.20;;
73474;SDS011;61711;52.266;10.542;2023-02-04T12:45:38;2.25;;;1.38;;
73474;SDS011;61711;52.266;10.542;2023-02-04T12:48:09;1.88;;;1.40;;
73474;SDS011;61711;52.266;10.542;2023-02-04T12:50:35;3.15;;;1.60;;
73474;SDS011;61711;52.266;10.542;2023-02-04T12:53:01;3.47;;;1.38;;
73474;SDS011;61711;52.266;10.542;2023-02-04T12:55:28;2.90;;;1.17;;
73474;SDS011;61711;52.266;10.542;2023-02-04T12:57:54;3.35;;;1.30;;
73474;SDS011;61711;52.266;10.542;2023-02-04T13:00:20;1.58;;;1.30;;
73474;SDS011;61711;52.266;10.542;2023-02-04T13:02:47;2.75;;;1.40;;
73474;SDS011;61711;52.266;10.542;2023-02-04T13:05:13;2.85;;;1.75;;
73474;SDS011;61711;52.266;10.542;2023-02-04T13:07:40;2.58;;;1.40;;
73474;SDS011;61711;52.266;10.542;2023-02-04T13:10:07;4.20;;;1.40;;
73474;SDS011;61711;52.266;10.542;2023-02-04T13:12:33;3.10;;;1.40;;
73474;SDS011;61711;52.266;10.542;2023-02-04T13:14:59;3.08;;;1.50;;
73474;SDS011;61711;52.266;10.542;2023-02-04T13:17:25;3.47;;;1.30;;
73474;SDS011;61711;52.266;10.542;2023-02-04T13:19:51;5.90;;;2.05;;
73474;SDS011;61711;52.266;10.542;2023-02-04T13:22:17;3.50;;;1.20;;
73474;SDS011;61711;52.266;10.542;2023-02-04T13:24:43;2.83;;;1.27;;
73474;SDS011;61711;52.266;10.542;2023-02-04T13:27:09;4.32;;;1.40;;
73474;SDS011;61711;52.266;10.542;2023-02-04T13:29:35;2.42;;;1.30;;
73474;SDS011;61711;52.266;10.542;2023-02-04T13:32:01;2.65;;;1.30;;
73474;SDS011;61711;52.266;10.542;2023-02-04T13:34:27;2.15;;;1.40;;
73474;SDS011;61711;52.266;10.542;2023-02-04T13:36:53;3.70;;;1.60;;
73474;SDS011;61711;52.266;10.542;2023-02-04T13:39:19;2.55;;;1.40;;
73474;SDS011;61711;52.266;10.542;2023-02-04T13:41:45;3.47;;;1.50;;
73474;SDS011;61711;52.266;10.542;2023-02-04T13:44:11;4.18;;;1.80;;
73474;SDS011;61711;52.266;10.542;2023-02-04T13:46:37;3.80;;;1.55;;
73474;SDS011;61711;52.266;10.542;2023-02-04T13:49:03;3.15;;;1.60;;
73474;SDS011;61711;52.266;10.542;2023-02-04T13:51:29;3.97;;;1.30;;
73474;SDS011;61711;52.266;10.542;2023-02-04T13:53:55;3.30;;;1.90;;
73474;SDS011;61711;52.266;10.542;2023-02-04T13:56:23;2.85;;;1.65;;
73474;SDS011;61711;52.266;10.542;2023-02-04T13:58:49;2.40;;;1.63;;
73474;SDS011;61711;52.266;10.542;2023-02-04T14:01:15;6.03;;;1.60;;
73474;SDS011;61711;52.266;10.542;2023-02-04T14:03:41;3.75;;;1.80;;
73474;SDS011;61711;52.266;10.542;2023-02-04T14:06:07;4.10;;;1.75;;
73474;SDS011;61711;52.266;10.542;2023-02-04T14:08:34;2.70;;;1.50;;
73474;SDS011;61711;52.266;10.542;2023-02-04T14:11:00;3.75;;;1.85;;
73474;SDS011;61711;52.266;10.542;2023-02-04T14:13:26;3.50;;;1.70;;
73474;SDS011;61711;52.266;10.542;2023-02-04T14:15:52;3.53;;;2.00;;
73474;SDS011;61711;52.266;10.542;2023-02-04T14:18:18;6.15;;;1.70;;
73474;SDS011;61711;52.266;10.542;2023-02-04T14:20:45;3.33;;;1.80;;
73474;SDS011;61711;52.266;10.542;2023-02-04T14:23:11;3.50;;;1.90;;
73474;SDS011;61711;52.266;10.542;2023-02-04T14:25:37;3.85;;;1.63;;
73474;SDS011;61711;52.266;10.542;2023-02-04T14:28:03;2.97;;;1.70;;
73474;SDS011;61711;52.266;10.542;2023-02-04T14:30:30;3.13;;;1.70;;
73474;SDS011;61711;52.266;10.542;2023-02-04T14:32:56;3.53;;;1.92;;
73474;SDS011;61711;52.266;10.542;2023-02-04T14:35:22;2.20;;;1.58;;
73474;SDS011;61711;52.266;10.542;2023-02-04T14:37:48;4.57;;;2.10;;
73474;SDS011;61711;52.266;10.542;2023-02-04T14:40:15;4.72;;;2.17;;